Main page
METAR-TAF:

METAR-TAF

Airports :

Juhu Aerodrome

Mumbai, India

latitude: 19-05-53N, longitude: 072-50-02E, elevation: 4 m

Current weather observation

The report was made 29 minutes ago, at 06:00 UTC
Wind 10 kt from the Southwest
Temperature 29°C
Humidity 79%
Pressure 1008 hPa
Visibility: 3000 m
Scattered clouds at a height of 1800 ft
Scattered clouds at a height of 2500 ft
Few clouds at a height of 2500 ft, Towering cumulus.
Broken clouds at a height of 9000 ft
haze

METAR: VAJJ 300600Z 22010KT 3000 HZ SCT018 SCT025 FEW025TCU BKN090 29/25 Q1008 NOSIG

Time: 11:59 (06:29 UTC)


TAF: missing

Weather observations and forecasts of more than 4000 airports (METAR and TAF reports).

The available stations are represented by yellow and red dots on the map.

Hover mouse over dot to see the name of the station.

Then click to see weather observations and forecasts.

To change the map : click on the green buttons with a black cross to zoom in, on the green button with a dash to zoom out, or on the green arrows for adjacent maps.


METAR-TAF: